createdAt,value
2018-05-25T00:02:22.024Z,21.63
2018-05-25T00:04:55.676Z,21.57
2018-05-25T00:07:29.252Z,21.93
2018-05-25T00:10:02.792Z,22.37
2018-05-25T00:12:36.485Z,22.43
2018-05-25T00:15:09.992Z,22.80
2018-05-25T00:17:43.748Z,21.83
2018-05-25T00:20:17.543Z,22.57
2018-05-25T00:22:51.152Z,23.47
2018-05-25T00:25:24.837Z,22.30
2018-05-25T00:27:58.580Z,24.37
2018-05-25T00:30:32.155Z,22.23
2018-05-25T00:33:05.741Z,22.60
2018-05-25T00:35:39.569Z,22.70
2018-05-25T00:38:13.352Z,22.60
2018-05-25T00:40:46.894Z,22.57
2018-05-25T00:43:20.660Z,22.70
2018-05-25T00:45:54.274Z,25.27
2018-05-25T00:48:27.915Z,22.77
2018-05-25T00:51:01.560Z,23.47
2018-05-25T00:53:35.229Z,23.17
2018-05-25T00:56:08.800Z,24.03
2018-05-25T00:58:42.533Z,23.70
2018-05-25T01:01:16.392Z,21.70
2018-05-25T01:03:50.181Z,22.30
2018-05-25T01:06:24.031Z,22.93
2018-05-25T01:08:57.641Z,25.57
2018-05-25T01:11:31.404Z,23.73
2018-05-25T01:14:05.005Z,22.57
2018-05-25T01:16:38.731Z,22.20
2018-05-25T01:19:12.272Z,22.17
2018-05-25T01:21:45.872Z,22.77
2018-05-25T01:24:19.432Z,23.63
2018-05-25T01:26:52.950Z,24.20
2018-05-25T01:29:26.684Z,22.83
2018-05-25T01:32:00.265Z,22.43
2018-05-25T01:34:33.982Z,23.47
2018-05-25T01:37:07.610Z,23.70
2018-05-25T01:39:41.263Z,23.13
2018-05-25T01:42:14.796Z,23.83
2018-05-25T01:44:48.535Z,23.23
2018-05-25T01:47:22.183Z,23.20
2018-05-25T01:49:55.868Z,22.20
2018-05-25T01:52:29.611Z,23.03
2018-05-25T01:55:03.280Z,22.97
2018-05-25T01:57:38.108Z,24.27
2018-05-25T02:00:11.836Z,22.80
2018-05-25T02:02:45.364Z,21.23
2018-05-25T02:05:18.934Z,22.47
2018-05-25T02:07:52.712Z,23.20
2018-05-25T02:10:26.401Z,24.40
2018-05-25T02:13:00.066Z,24.80
2018-05-25T02:15:33.588Z,23.43
2018-05-25T02:18:07.289Z,23.93
2018-05-25T02:20:40.991Z,24.47
2018-05-25T02:23:14.631Z,23.43
2018-05-25T02:25:48.376Z,24.07
2018-05-25T02:28:22.052Z,24.43
2018-05-25T02:30:55.583Z,23.83
2018-05-25T02:33:29.140Z,23.70
2018-05-25T02:36:02.797Z,23.33
2018-05-25T02:38:36.389Z,25.93
2018-05-25T02:41:09.875Z,24.60
2018-05-25T02:43:43.421Z,24.83
2018-05-25T02:46:17.168Z,24.63
2018-05-25T02:48:50.890Z,23.37
2018-05-25T02:51:24.564Z,23.23
2018-05-25T02:53:58.283Z,24.50
2018-05-25T02:56:32.068Z,25.40
2018-05-25T02:59:05.758Z,24.37
2018-05-25T03:01:39.474Z,25.00
2018-05-25T03:04:13.168Z,25.60
2018-05-25T03:06:46.892Z,25.80
2018-05-25T03:09:20.400Z,26.20
2018-05-25T03:11:54.121Z,25.73
2018-05-25T03:14:27.691Z,29.07
2018-05-25T03:17:01.552Z,25.83
2018-05-25T03:19:35.108Z,25.97
2018-05-25T03:22:08.768Z,26.17
2018-05-25T03:24:42.447Z,26.33
2018-05-25T03:27:15.988Z,27.43
2018-05-25T03:29:49.724Z,29.17
2018-05-25T03:32:23.312Z,25.60
2018-05-25T03:34:57.007Z,28.13
2018-05-25T03:37:30.536Z,27.57
2018-05-25T03:40:04.178Z,25.03
2018-05-25T03:42:37.932Z,28.20
2018-05-25T03:45:11.732Z,27.13
2018-05-25T03:47:45.361Z,26.23
2018-05-25T03:50:18.855Z,27.53
2018-05-25T03:52:52.512Z,25.57
2018-05-25T03:55:26.272Z,27.00
2018-05-25T03:58:00.005Z,26.73
2018-05-25T04:00:45.404Z,27.40
2018-05-25T04:03:19.180Z,27.33
2018-05-25T04:05:52.736Z,28.40
2018-05-25T04:08:26.416Z,26.60
2018-05-25T04:10:59.912Z,26.77
2018-05-25T04:13:33.700Z,29.60
2018-05-25T04:16:07.325Z,29.07
2018-05-25T04:18:40.874Z,28.10
2018-05-25T04:21:14.519Z,24.70
2018-05-25T04:23:48.284Z,26.77
2018-05-25T04:26:21.930Z,27.30
2018-05-25T04:28:55.594Z,25.77
2018-05-25T04:31:29.298Z,27.47
2018-05-25T04:34:02.874Z,24.50
2018-05-25T04:36:36.619Z,24.93
2018-05-25T04:39:10.396Z,27.73
2018-05-25T04:41:44.052Z,25.70
2018-05-25T04:44:17.634Z,25.10
2018-05-25T04:46:51.402Z,23.83
2018-05-25T04:49:24.981Z,25.70
2018-05-25T04:51:58.628Z,28.20
2018-05-25T04:54:32.330Z,25.17
2018-05-25T04:57:05.897Z,25.57
2018-05-25T04:59:39.671Z,25.13
2018-05-25T05:02:13.245Z,23.13
2018-05-25T05:04:46.967Z,22.63
2018-05-25T05:07:20.652Z,23.80
2018-05-25T05:09:54.268Z,24.50
2018-05-25T05:12:27.914Z,22.70
2018-05-25T05:15:01.728Z,23.70
2018-05-25T05:17:35.228Z,24.50
2018-05-25T05:20:08.974Z,23.00
2018-05-25T05:22:42.604Z,24.90
2018-05-25T05:25:16.241Z,29.53
2018-05-25T05:27:49.744Z,23.23
2018-05-25T05:30:23.404Z,22.83
2018-05-25T05:32:56.973Z,22.97
2018-05-25T05:35:30.685Z,22.97
2018-05-25T05:38:04.298Z,22.33
2018-05-25T05:40:38.155Z,23.20
2018-05-25T05:43:12.007Z,21.33
2018-05-25T05:45:45.644Z,21.13
2018-05-25T05:48:19.388Z,19.20
2018-05-25T05:50:53.064Z,21.53
2018-05-25T05:53:26.666Z,20.50
2018-05-25T05:56:00.506Z,21.77
2018-05-25T05:58:34.172Z,19.53
2018-05-25T06:01:07.744Z,20.70
2018-05-25T06:03:41.243Z,20.27
2018-05-25T06:06:14.908Z,20.03
2018-05-25T06:08:49.021Z,21.80
2018-05-25T06:11:22.919Z,23.13
2018-05-25T06:13:56.469Z,20.73
2018-05-25T06:16:30.151Z,19.00
2018-05-25T06:19:03.936Z,20.97
2018-05-25T06:21:37.580Z,19.83
2018-05-25T06:24:11.512Z,22.23
2018-05-25T06:26:45.203Z,17.73
2018-05-25T06:29:18.914Z,19.60
2018-05-25T06:31:52.420Z,17.50
2018-05-25T06:34:25.972Z,18.67
2018-05-25T06:36:59.515Z,18.87
2018-05-25T06:39:33.079Z,21.03
2018-05-25T06:42:06.868Z,20.13
2018-05-25T06:44:40.624Z,20.47
2018-05-25T06:47:14.196Z,19.57
2018-05-25T06:49:47.714Z,19.10
2018-05-25T06:52:21.453Z,20.17
2018-05-25T06:54:55.265Z,19.83
2018-05-25T06:57:28.985Z,18.03
2018-05-25T07:00:02.653Z,19.70
2018-05-25T07:02:36.312Z,17.57
2018-05-25T07:05:10.087Z,18.20
2018-05-25T07:07:43.859Z,19.30
2018-05-25T07:10:17.565Z,17.90
2018-05-25T07:12:51.205Z,17.07
2018-05-25T07:15:24.748Z,17.00
2018-05-25T07:18:04.285Z,17.57
2018-05-25T07:20:38.030Z,16.83
2018-05-25T07:23:11.703Z,16.87
2018-05-25T07:25:45.393Z,17.63
2018-05-25T07:28:19.276Z,18.23
2018-05-25T07:30:53.030Z,19.23
2018-05-25T07:33:26.855Z,18.40
2018-05-25T07:36:00.497Z,18.83
2018-05-25T07:38:34.122Z,21.13
2018-05-25T07:41:07.753Z,23.87
2018-05-25T07:43:41.325Z,20.77
2018-05-25T07:46:14.955Z,19.43
2018-05-25T07:48:48.672Z,18.30
2018-05-25T07:51:22.596Z,19.40
2018-05-25T07:53:56.293Z,18.73
2018-05-25T07:56:29.993Z,17.33
2018-05-25T07:59:03.624Z,18.07
2018-05-25T08:01:37.493Z,20.83
2018-05-25T08:04:11.105Z,19.70
2018-05-25T08:06:44.905Z,18.93
2018-05-25T08:09:18.666Z,20.53
2018-05-25T08:11:52.284Z,19.00
2018-05-25T08:14:25.900Z,20.20
2018-05-25T08:17:00.329Z,19.90
2018-05-25T08:19:34.157Z,18.63
2018-05-25T08:22:07.836Z,16.47
2018-05-25T08:24:41.511Z,19.27
2018-05-25T08:27:15.259Z,18.60
2018-05-25T08:29:49.052Z,19.00
2018-05-25T08:32:22.681Z,16.30
2018-05-25T08:34:56.296Z,18.57
2018-05-25T08:37:29.969Z,18.00
2018-05-25T08:40:03.802Z,16.20
2018-05-25T08:42:37.624Z,18.17
2018-05-25T08:45:11.460Z,18.67
2018-05-25T08:47:45.175Z,18.10
2018-05-25T08:50:18.908Z,16.97
2018-05-25T08:52:52.527Z,19.13
2018-05-25T08:55:26.243Z,17.97
2018-05-25T08:57:59.869Z,18.43
2018-05-25T09:00:33.521Z,18.40
2018-05-25T09:03:07.227Z,18.03
2018-05-25T09:05:41.017Z,16.93
2018-05-25T09:08:14.745Z,16.23
2018-05-25T09:10:48.360Z,16.53
2018-05-25T09:13:22.137Z,15.83
2018-05-25T09:15:55.905Z,14.93
2018-05-25T09:18:29.473Z,15.17
2018-05-25T09:21:03.177Z,13.87
2018-05-25T09:23:36.761Z,12.67
2018-05-25T09:26:10.493Z,13.13
2018-05-25T09:28:44.239Z,10.63
2018-05-25T09:31:18.209Z,12.47
2018-05-25T09:33:51.896Z,13.13
2018-05-25T09:36:25.701Z,13.70
2018-05-25T09:38:59.433Z,13.33
2018-05-25T09:41:33.070Z,12.23
2018-05-25T09:44:06.766Z,12.20
2018-05-25T09:46:40.397Z,14.50
2018-05-25T09:49:14.105Z,14.03
2018-05-25T09:51:47.883Z,12.00
2018-05-25T09:54:21.508Z,13.57
2018-05-25T09:57:01.216Z,11.83
2018-05-25T09:59:35.034Z,10.90
2018-05-25T10:02:09.060Z,14.00
2018-05-25T10:04:42.886Z,10.93
2018-05-25T10:07:16.611Z,12.60
2018-05-25T10:09:50.343Z,11.90
2018-05-25T10:12:23.973Z,10.30
2018-05-25T10:14:57.761Z,11.57
2018-05-25T10:17:31.497Z,11.13
2018-05-25T10:20:05.172Z,11.30
2018-05-25T10:22:38.932Z,10.70
2018-05-25T10:25:12.665Z,9.40
2018-05-25T10:27:46.341Z,11.83
2018-05-25T10:30:20.059Z,11.77
2018-05-25T10:32:53.693Z,12.93
2018-05-25T10:35:27.241Z,11.70
2018-05-25T10:38:01.041Z,11.67
2018-05-25T10:40:34.770Z,10.50
2018-05-25T10:43:08.328Z,11.97
2018-05-25T10:45:42.121Z,10.43
2018-05-25T10:48:15.834Z,13.37
2018-05-25T10:50:49.437Z,11.37
2018-05-25T10:53:23.043Z,10.77
2018-05-25T10:55:56.732Z,9.10
2018-05-25T10:58:30.480Z,11.43
2018-05-25T11:01:04.137Z,10.23
2018-05-25T11:03:37.938Z,8.53
2018-05-25T11:06:11.483Z,9.20
2018-05-25T11:08:45.194Z,9.67
2018-05-25T11:11:18.997Z,9.27
2018-05-25T11:13:53.042Z,9.63
2018-05-25T11:19:26.045Z,9.17
2018-05-25T11:21:59.797Z,8.00
2018-05-25T11:24:33.436Z,9.33
2018-05-25T11:27:27.834Z,8.97
2018-05-25T11:30:01.498Z,9.33
2018-05-25T11:32:35.135Z,7.77
2018-05-25T11:35:08.839Z,8.90
2018-05-25T11:37:42.516Z,8.43
2018-05-25T11:40:16.284Z,8.40
2018-05-25T11:42:50.000Z,9.30
2018-05-25T11:45:23.554Z,8.80
2018-05-25T11:47:57.317Z,10.77
2018-05-25T11:50:31.047Z,8.67
2018-05-25T11:53:04.698Z,7.60
2018-05-25T11:55:39.599Z,8.00
2018-05-25T11:58:13.308Z,9.43
2018-05-25T12:00:47.020Z,8.63
2018-05-25T12:03:20.764Z,8.67
2018-05-25T12:05:54.493Z,10.67
2018-05-25T12:08:28.241Z,10.87
2018-05-25T12:11:01.897Z,10.10
2018-05-25T12:13:35.603Z,9.90
2018-05-25T12:16:09.442Z,10.07
2018-05-25T12:18:43.144Z,10.20
2018-05-25T12:21:16.717Z,8.70
2018-05-25T12:23:50.430Z,9.97
2018-05-25T12:26:24.135Z,9.60
2018-05-25T12:28:57.853Z,9.63
2018-05-25T12:31:31.403Z,11.00
2018-05-25T12:34:05.088Z,10.27
2018-05-25T12:36:38.776Z,9.87
2018-05-25T12:39:12.544Z,10.57
2018-05-25T12:41:46.151Z,11.83
2018-05-25T12:44:19.709Z,10.83
2018-05-25T12:46:53.460Z,10.87
2018-05-25T12:49:26.968Z,10.93
2018-05-25T12:52:00.535Z,11.17
2018-05-25T12:54:34.151Z,11.43
2018-05-25T12:57:07.847Z,11.60
2018-05-25T12:59:41.360Z,12.93
2018-05-25T13:02:14.950Z,10.33
2018-05-25T13:04:48.664Z,9.97
2018-05-25T13:07:22.456Z,11.07
2018-05-25T13:09:55.956Z,11.07
2018-05-25T13:12:29.573Z,10.27
2018-05-25T13:15:03.108Z,11.80
2018-05-25T13:17:36.908Z,12.60
2018-05-25T13:20:10.552Z,12.23
2018-05-25T13:22:44.107Z,10.67
2018-05-25T13:25:17.876Z,10.03
2018-05-25T13:27:51.455Z,9.97
2018-05-25T13:30:25.132Z,9.57
2018-05-25T13:32:58.612Z,10.33
2018-05-25T13:35:32.189Z,9.83
2018-05-25T13:38:05.763Z,10.00
2018-05-25T13:40:39.491Z,8.87
2018-05-25T13:43:13.203Z,8.30
2018-05-25T13:45:46.732Z,8.03
2018-05-25T13:48:20.564Z,8.37
2018-05-25T13:50:54.063Z,8.70
2018-05-25T13:53:27.676Z,8.50
2018-05-25T13:56:01.295Z,8.00
2018-05-25T13:58:35.043Z,8.03
2018-05-25T14:01:08.569Z,8.93
2018-05-25T14:03:42.151Z,8.17
2018-05-25T14:06:15.823Z,9.00
2018-05-25T14:08:49.419Z,8.77
2018-05-25T14:11:23.093Z,9.53
2018-05-25T14:13:56.611Z,7.83
2018-05-25T14:16:30.496Z,12.03
2018-05-25T14:19:04.170Z,8.60
2018-05-25T14:21:37.700Z,7.93
2018-05-25T14:24:11.272Z,5.90
2018-05-25T14:26:45.141Z,7.40
2018-05-25T14:29:18.684Z,5.20
2018-05-25T14:31:52.392Z,4.93
2018-05-25T14:34:26.196Z,6.07
2018-05-25T14:36:59.677Z,4.20
2018-05-25T14:39:33.429Z,6.83
2018-05-25T14:42:07.108Z,4.60
2018-05-25T14:44:40.888Z,4.03
2018-05-25T14:47:14.407Z,4.37
2018-05-25T14:49:48.091Z,4.73
2018-05-25T14:52:21.684Z,4.27
2018-05-25T14:54:55.495Z,4.33
2018-05-25T14:57:29.245Z,4.50
2018-05-25T15:00:02.853Z,4.50
2018-05-25T15:02:36.388Z,4.60
2018-05-25T15:05:10.029Z,4.73
2018-05-25T15:07:43.584Z,4.67
2018-05-25T15:10:17.224Z,5.20
2018-05-25T15:12:50.998Z,5.33
2018-05-25T15:15:24.582Z,5.40
2018-05-25T15:17:58.218Z,5.33
2018-05-25T15:20:31.870Z,4.83
2018-05-25T15:23:05.435Z,5.50
2018-05-25T15:25:39.133Z,5.73
2018-05-25T15:28:12.875Z,5.43
2018-05-25T15:30:46.482Z,5.83
2018-05-25T15:33:20.037Z,5.63
2018-05-25T15:35:53.859Z,6.87
2018-05-25T15:38:27.492Z,7.77
2018-05-25T15:41:01.292Z,6.07
2018-05-25T15:43:34.825Z,5.70
2018-05-25T15:46:08.628Z,5.80
2018-05-25T15:48:43.018Z,6.10
2018-05-25T15:51:16.591Z,5.83
2018-05-25T15:53:50.335Z,5.93
2018-05-25T15:56:23.937Z,7.07
2018-05-25T15:58:57.564Z,6.10
2018-05-25T16:01:31.090Z,5.90
2018-05-25T16:04:04.796Z,6.20
2018-05-25T16:06:38.392Z,5.67
2018-05-25T16:09:12.046Z,6.23
2018-05-25T16:11:45.589Z,5.70
2018-05-25T16:14:19.379Z,8.13
2018-05-25T16:16:52.906Z,6.60
2018-05-25T16:19:26.504Z,6.00
2018-05-25T16:22:00.032Z,5.87
2018-05-25T16:24:33.764Z,6.30
2018-05-25T16:27:07.317Z,6.33
2018-05-25T16:29:41.015Z,6.37
2018-05-25T16:32:14.553Z,7.80
2018-05-25T16:34:48.217Z,8.77
2018-05-25T16:37:21.820Z,6.67
2018-05-25T16:39:55.427Z,8.10
2018-05-25T16:42:29.044Z,6.57
2018-05-25T16:45:02.712Z,28.93
2018-05-25T16:47:36.342Z,8.03
2018-05-25T16:50:09.987Z,13.47
2018-05-25T16:52:43.612Z,7.77
2018-05-25T16:55:17.241Z,10.70
2018-05-25T16:57:50.886Z,7.33
2018-05-25T17:00:24.445Z,5.97
2018-05-25T17:02:57.956Z,7.43
2018-05-25T17:05:31.830Z,28.80
2018-05-25T17:08:05.612Z,6.33
2018-05-25T17:10:39.164Z,6.47
2018-05-25T17:13:12.836Z,5.80
2018-05-25T17:15:46.475Z,5.90
2018-05-25T17:18:19.980Z,6.20
2018-05-25T17:20:53.736Z,5.70
2018-05-25T17:23:27.236Z,5.90
2018-05-25T17:26:01.062Z,5.60
2018-05-25T17:28:34.771Z,5.10
2018-05-25T17:31:08.536Z,6.67
2018-05-25T17:33:42.378Z,5.77
2018-05-25T17:36:16.195Z,6.53
2018-05-25T17:38:49.872Z,6.00
2018-05-25T17:41:23.448Z,6.17
2018-05-25T17:43:57.007Z,5.53
2018-05-25T17:46:30.600Z,5.43
2018-05-25T17:49:04.288Z,5.87
2018-05-25T17:51:38.036Z,6.00
2018-05-25T17:54:11.573Z,6.77
2018-05-25T17:56:45.139Z,7.50
2018-05-25T17:59:18.924Z,6.70
2018-05-25T18:01:52.429Z,7.03
2018-05-25T18:04:26.050Z,6.67
2018-05-25T18:06:59.716Z,5.70
2018-05-25T18:09:33.223Z,7.13
2018-05-25T18:12:07.016Z,6.63
2018-05-25T18:14:40.757Z,6.07
2018-05-25T18:17:14.534Z,6.57
2018-05-25T18:19:48.187Z,7.20
2018-05-25T18:22:21.792Z,7.87
2018-05-25T18:24:55.500Z,6.63
2018-05-25T18:27:29.224Z,6.67
2018-05-25T18:30:02.759Z,7.30
2018-05-25T18:32:36.568Z,7.33
2018-05-25T18:35:10.283Z,7.13
2018-05-25T18:37:43.864Z,6.50
2018-05-25T18:40:17.503Z,6.90
2018-05-25T18:42:51.062Z,7.40
2018-05-25T18:45:24.991Z,7.07
2018-05-25T18:47:58.689Z,7.40
2018-05-25T18:50:32.311Z,6.83
2018-05-25T18:53:05.878Z,7.03
2018-05-25T18:55:39.528Z,7.83
2018-05-25T18:58:13.160Z,7.90
2018-05-25T19:00:46.803Z,7.37
2018-05-25T19:03:20.488Z,7.50
2018-05-25T19:05:54.197Z,7.57
2018-05-25T19:08:27.806Z,7.50
2018-05-25T19:11:01.613Z,7.67
2018-05-25T19:13:35.229Z,8.63
2018-05-25T19:16:09.048Z,8.30
2018-05-25T19:18:42.630Z,7.80
2018-05-25T19:21:16.181Z,9.53
2018-05-25T19:23:49.817Z,7.90
2018-05-25T19:26:23.393Z,7.90
2018-05-25T19:28:57.176Z,8.73
2018-05-25T19:31:30.869Z,8.30
2018-05-25T19:34:04.431Z,9.83
2018-05-25T19:36:38.056Z,7.17
2018-05-25T19:39:11.592Z,7.67
2018-05-25T19:41:45.240Z,8.03
2018-05-25T19:44:19.038Z,7.30
2018-05-25T19:46:52.668Z,8.70
2018-05-25T19:49:26.494Z,9.53
2018-05-25T19:52:00.027Z,7.90
2018-05-25T19:54:33.683Z,9.20
2018-05-25T19:57:07.435Z,9.00
2018-05-25T19:59:41.152Z,9.40
2018-05-25T20:02:15.049Z,9.03
2018-05-25T20:04:48.512Z,9.30
2018-05-25T20:07:22.079Z,9.50
2018-05-25T20:09:56.379Z,10.17
2018-05-25T20:12:29.939Z,10.93
2018-05-25T20:15:03.759Z,11.90
2018-05-25T20:17:37.439Z,10.33
2018-05-25T20:20:11.173Z,11.23
2018-05-25T20:22:44.720Z,10.47
2018-05-25T20:25:18.515Z,10.70
2018-05-25T20:27:52.235Z,9.83
2018-05-25T20:30:25.739Z,9.37
2018-05-25T20:32:59.299Z,8.83
2018-05-25T20:35:33.083Z,8.83
2018-05-25T20:38:06.740Z,8.17
2018-05-25T20:40:40.391Z,9.90
2018-05-25T20:43:14.200Z,8.77
2018-05-25T20:45:47.704Z,8.40
2018-05-25T20:48:21.280Z,9.83
2018-05-25T20:50:54.808Z,8.60
2018-05-25T20:53:28.412Z,8.47
2018-05-25T20:56:02.100Z,8.87
2018-05-25T20:58:35.891Z,7.87
2018-05-25T21:01:09.735Z,8.83
2018-05-25T21:03:43.268Z,8.93
2018-05-25T21:06:17.348Z,8.20
2018-05-25T21:08:51.006Z,8.33
2018-05-25T21:11:24.852Z,12.13
2018-05-25T21:13:58.460Z,8.93
2018-05-25T21:16:32.939Z,8.00
2018-05-25T21:19:06.719Z,8.20
2018-05-25T21:21:40.516Z,8.73
2018-05-25T21:24:14.314Z,7.93
2018-05-25T21:26:47.776Z,8.83
2018-05-25T21:29:21.507Z,8.33
2018-05-25T21:31:55.055Z,8.13
2018-05-25T21:34:28.824Z,8.10
2018-05-25T21:37:03.176Z,7.93
2018-05-25T21:39:36.861Z,9.47
2018-05-25T21:42:10.481Z,8.70
2018-05-25T21:44:44.084Z,7.90
2018-05-25T21:47:17.655Z,8.37
2018-05-25T21:49:51.272Z,8.13
2018-05-25T21:52:24.992Z,8.00
2018-05-25T21:54:58.603Z,9.47
2018-05-25T21:57:32.227Z,8.70
2018-05-25T22:00:05.785Z,8.10
2018-05-25T22:02:39.452Z,9.03
2018-05-25T22:05:13.272Z,8.50
2018-05-25T22:07:46.892Z,8.80
2018-05-25T22:10:20.560Z,9.10
2018-05-25T22:12:54.064Z,7.97
2018-05-25T22:15:27.725Z,9.40
2018-05-25T22:18:01.307Z,8.87
2018-05-25T22:20:34.872Z,8.40
2018-05-25T22:23:08.624Z,9.33
2018-05-25T22:25:42.367Z,9.37
2018-05-25T22:28:15.922Z,9.13
2018-05-25T22:30:49.697Z,8.50
2018-05-25T22:33:23.453Z,8.57
2018-05-25T22:35:57.063Z,9.07
2018-05-25T22:38:30.597Z,9.00
2018-05-25T22:41:04.264Z,9.87
2018-05-25T22:43:49.759Z,8.63
2018-05-25T22:46:35.376Z,8.83
2018-05-25T22:49:21.001Z,7.97
2018-05-25T22:52:06.608Z,9.20
2018-05-25T22:54:41.952Z,9.53
2018-05-25T22:57:15.657Z,9.27
2018-05-25T22:59:49.296Z,8.70
2018-05-25T23:02:22.789Z,9.37
2018-05-25T23:04:56.580Z,9.23
2018-05-25T23:07:30.317Z,8.63
2018-05-25T23:10:04.029Z,9.70
2018-05-25T23:12:37.565Z,10.53
2018-05-25T23:15:11.176Z,10.23
2018-05-25T23:17:44.917Z,9.67
2018-05-25T23:20:18.482Z,8.83
2018-05-25T23:22:52.028Z,9.87
2018-05-25T23:25:25.877Z,8.97
2018-05-25T23:27:59.408Z,9.43
2018-05-25T23:30:33.188Z,8.67
2018-05-25T23:33:06.727Z,9.70
2018-05-25T23:35:40.407Z,9.97
2018-05-25T23:38:14.143Z,8.70
2018-05-25T23:40:47.801Z,9.20
2018-05-25T23:43:21.419Z,9.37
2018-05-25T23:45:54.974Z,8.97
2018-05-25T23:48:28.734Z,8.93
2018-05-25T23:51:02.493Z,8.93
2018-05-25T23:53:36.017Z,9.30
2018-05-25T23:56:09.544Z,10.03
2018-05-25T23:58:43.233Z,9.73
